sensor_id;sensor_type;location;lat;lon;timestamp;P1;durP1;ratioP1;P2;durP2;ratioP2
66800;SDS011;53703;50.326;19.122;2023-01-13T00:02:23;8.10;;;3.70;;
66800;SDS011;53703;50.326;19.122;2023-01-13T00:04:57;8.50;;;3.70;;
66800;SDS011;53703;50.326;19.122;2023-01-13T00:07:30;8.30;;;3.70;;
66800;SDS011;53703;50.326;19.122;2023-01-13T00:10:05;7.30;;;3.50;;
66800;SDS011;53703;50.326;19.122;2023-01-13T00:12:42;7.40;;;3.30;;
66800;SDS011;53703;50.326;19.122;2023-01-13T00:15:15;8.00;;;3.30;;
66800;SDS011;53703;50.326;19.122;2023-01-13T00:17:49;7.70;;;3.30;;
66800;SDS011;53703;50.326;19.122;2023-01-13T00:20:22;7.90;;;3.30;;
66800;SDS011;53703;50.326;19.122;2023-01-13T00:22:56;6.70;;;3.40;;
66800;SDS011;53703;50.326;19.122;2023-01-13T00:25:31;6.00;;;3.20;;
66800;SDS011;53703;50.326;19.122;2023-01-13T00:28:04;6.50;;;2.90;;
66800;SDS011;53703;50.326;19.122;2023-01-13T00:30:39;7.30;;;2.80;;
66800;SDS011;53703;50.326;19.122;2023-01-13T00:33:12;7.40;;;3.00;;
66800;SDS011;53703;50.326;19.122;2023-01-13T00:35:46;8.40;;;3.00;;
66800;SDS011;53703;50.326;19.122;2023-01-13T00:38:43;5.70;;;2.90;;
66800;SDS011;53703;50.326;19.122;2023-01-13T00:41:18;6.00;;;2.40;;
66800;SDS011;53703;50.326;19.122;2023-01-13T00:43:52;6.20;;;2.70;;
66800;SDS011;53703;50.326;19.122;2023-01-13T00:46:26;8.50;;;3.40;;
66800;SDS011;53703;50.326;19.122;2023-01-13T00:48:59;11.40;;;2.80;;
66800;SDS011;53703;50.326;19.122;2023-01-13T00:51:33;9.20;;;2.90;;
66800;SDS011;53703;50.326;19.122;2023-01-13T00:54:07;9.50;;;3.00;;
66800;SDS011;53703;50.326;19.122;2023-01-13T00:56:41;5.80;;;2.20;;
66800;SDS011;53703;50.326;19.122;2023-01-13T00:59:15;7.80;;;2.40;;
66800;SDS011;53703;50.326;19.122;2023-01-13T01:01:48;8.00;;;2.80;;
66800;SDS011;53703;50.326;19.122;2023-01-13T01:04:22;5.30;;;2.50;;
66800;SDS011;53703;50.326;19.122;2023-01-13T01:06:56;6.40;;;2.40;;
66800;SDS011;53703;50.326;19.122;2023-01-13T01:09:30;6.70;;;2.40;;
66800;SDS011;53703;50.326;19.122;2023-01-13T01:12:05;8.60;;;2.40;;
66800;SDS011;53703;50.326;19.122;2023-01-13T01:14:38;5.80;;;2.30;;
66800;SDS011;53703;50.326;19.122;2023-01-13T01:17:12;5.20;;;2.30;;
66800;SDS011;53703;50.326;19.122;2023-01-13T01:19:45;5.30;;;2.20;;
66800;SDS011;53703;50.326;19.122;2023-01-13T01:22:19;5.40;;;2.60;;
66800;SDS011;53703;50.326;19.122;2023-01-13T01:24:53;5.30;;;2.10;;
66800;SDS011;53703;50.326;19.122;2023-01-13T01:27:26;6.00;;;1.90;;
66800;SDS011;53703;50.326;19.122;2023-01-13T01:30:00;4.80;;;2.40;;
66800;SDS011;53703;50.326;19.122;2023-01-13T01:32:35;5.40;;;2.20;;
66800;SDS011;53703;50.326;19.122;2023-01-13T01:35:09;4.60;;;2.10;;
66800;SDS011;53703;50.326;19.122;2023-01-13T01:37:42;5.70;;;2.30;;
66800;SDS011;53703;50.326;19.122;2023-01-13T01:40:16;6.60;;;2.00;;
66800;SDS011;53703;50.326;19.122;2023-01-13T01:42:50;4.40;;;2.00;;
66800;SDS011;53703;50.326;19.122;2023-01-13T01:45:41;4.60;;;2.00;;
66800;SDS011;53703;50.326;19.122;2023-01-13T01:48:14;5.20;;;1.70;;
66800;SDS011;53703;50.326;19.122;2023-01-13T01:50:48;5.80;;;2.20;;
66800;SDS011;53703;50.326;19.122;2023-01-13T01:53:22;4.30;;;2.00;;
66800;SDS011;53703;50.326;19.122;2023-01-13T01:55:59;3.90;;;1.70;;
66800;SDS011;53703;50.326;19.122;2023-01-13T01:58:36;4.40;;;1.90;;
66800;SDS011;53703;50.326;19.122;2023-01-13T02:01:15;4.60;;;1.70;;
66800;SDS011;53703;50.326;19.122;2023-01-13T02:03:53;4.30;;;1.90;;
66800;SDS011;53703;50.326;19.122;2023-01-13T02:06:30;4.60;;;1.70;;
66800;SDS011;53703;50.326;19.122;2023-01-13T02:09:03;3.80;;;1.70;;
66800;SDS011;53703;50.326;19.122;2023-01-13T02:11:37;3.50;;;1.70;;
66800;SDS011;53703;50.326;19.122;2023-01-13T02:14:28;4.30;;;1.70;;
66800;SDS011;53703;50.326;19.122;2023-01-13T02:17:17;4.40;;;1.70;;
66800;SDS011;53703;50.326;19.122;2023-01-13T02:21:30;3.60;;;1.60;;
66800;SDS011;53703;50.326;19.122;2023-01-13T02:30:19;3.30;;;1.70;;
66800;SDS011;53703;50.326;19.122;2023-01-13T02:33:59;3.80;;;1.60;;
66800;SDS011;53703;50.326;19.122;2023-01-13T02:36:59;3.50;;;1.60;;
66800;SDS011;53703;50.326;19.122;2023-01-13T02:40:00;3.60;;;1.60;;
66800;SDS011;53703;50.326;19.122;2023-01-13T02:43:03;3.30;;;1.70;;
66800;SDS011;53703;50.326;19.122;2023-01-13T02:46:21;2.60;;;1.40;;
66800;SDS011;53703;50.326;19.122;2023-01-13T02:49:26;3.00;;;1.40;;
66800;SDS011;53703;50.326;19.122;2023-01-13T02:52:28;3.70;;;1.50;;
66800;SDS011;53703;50.326;19.122;2023-01-13T02:55:27;2.80;;;1.60;;
66800;SDS011;53703;50.326;19.122;2023-01-13T02:58:27;2.60;;;1.20;;
66800;SDS011;53703;50.326;19.122;2023-01-13T03:01:23;2.70;;;1.60;;
66800;SDS011;53703;50.326;19.122;2023-01-13T03:04:47;2.60;;;1.30;;
66800;SDS011;53703;50.326;19.122;2023-01-13T03:07:52;2.80;;;1.20;;
66800;SDS011;53703;50.326;19.122;2023-01-13T03:11:01;4.20;;;1.40;;
66800;SDS011;53703;50.326;19.122;2023-01-13T03:13:59;2.80;;;1.10;;
66800;SDS011;53703;50.326;19.122;2023-01-13T03:17:06;3.30;;;1.30;;
66800;SDS011;53703;50.326;19.122;2023-01-13T03:20:17;2.90;;;1.40;;
66800;SDS011;53703;50.326;19.122;2023-01-13T03:23:17;2.00;;;0.90;;
66800;SDS011;53703;50.326;19.122;2023-01-13T03:26:23;2.60;;;1.40;;
66800;SDS011;53703;50.326;19.122;2023-01-13T03:29:24;2.40;;;1.50;;
66800;SDS011;53703;50.326;19.122;2023-01-13T03:32:25;2.40;;;1.20;;
66800;SDS011;53703;50.326;19.122;2023-01-13T03:35:24;2.50;;;1.30;;
66800;SDS011;53703;50.326;19.122;2023-01-13T03:38:25;2.70;;;1.30;;
66800;SDS011;53703;50.326;19.122;2023-01-13T03:41:26;4.00;;;1.30;;
66800;SDS011;53703;50.326;19.122;2023-01-13T03:44:28;2.70;;;1.40;;
66800;SDS011;53703;50.326;19.122;2023-01-13T03:47:27;4.00;;;1.20;;
66800;SDS011;53703;50.326;19.122;2023-01-13T03:50:28;3.30;;;1.60;;
66800;SDS011;53703;50.326;19.122;2023-01-13T03:53:28;3.60;;;1.10;;
66800;SDS011;53703;50.326;19.122;2023-01-13T03:56:28;2.70;;;1.20;;
66800;SDS011;53703;50.326;19.122;2023-01-13T03:59:28;3.20;;;1.40;;
66800;SDS011;53703;50.326;19.122;2023-01-13T04:02:31;2.20;;;1.20;;
66800;SDS011;53703;50.326;19.122;2023-01-13T04:05:33;2.40;;;1.40;;
66800;SDS011;53703;50.326;19.122;2023-01-13T04:08:33;4.90;;;1.20;;
66800;SDS011;53703;50.326;19.122;2023-01-13T04:11:13;2.60;;;1.20;;
66800;SDS011;53703;50.326;19.122;2023-01-13T04:14:10;2.70;;;1.20;;
66800;SDS011;53703;50.326;19.122;2023-01-13T04:17:07;2.80;;;1.40;;
66800;SDS011;53703;50.326;19.122;2023-01-13T04:20:01;1.80;;;1.00;;
66800;SDS011;53703;50.326;19.122;2023-01-13T04:22:55;3.30;;;1.20;;
66800;SDS011;53703;50.326;19.122;2023-01-13T04:25:50;2.10;;;1.10;;
66800;SDS011;53703;50.326;19.122;2023-01-13T04:28:47;3.00;;;1.40;;
66800;SDS011;53703;50.326;19.122;2023-01-13T04:31:41;2.40;;;1.10;;
66800;SDS011;53703;50.326;19.122;2023-01-13T04:34:35;2.10;;;1.10;;
66800;SDS011;53703;50.326;19.122;2023-01-13T04:37:29;4.00;;;1.30;;
66800;SDS011;53703;50.326;19.122;2023-01-13T04:40:24;2.00;;;1.10;;
66800;SDS011;53703;50.326;19.122;2023-01-13T04:43:18;1.80;;;1.20;;
66800;SDS011;53703;50.326;19.122;2023-01-13T04:46:12;2.10;;;1.20;;
66800;SDS011;53703;50.326;19.122;2023-01-13T04:49:06;2.40;;;1.30;;
66800;SDS011;53703;50.326;19.122;2023-01-13T04:52:00;1.70;;;1.10;;
66800;SDS011;53703;50.326;19.122;2023-01-13T04:54:53;1.30;;;0.90;;
66800;SDS011;53703;50.326;19.122;2023-01-13T04:57:48;2.50;;;1.20;;
66800;SDS011;53703;50.326;19.122;2023-01-13T05:00:42;2.30;;;1.10;;
66800;SDS011;53703;50.326;19.122;2023-01-13T05:03:36;2.00;;;1.10;;
66800;SDS011;53703;50.326;19.122;2023-01-13T05:06:30;2.20;;;1.20;;
66800;SDS011;53703;50.326;19.122;2023-01-13T05:09:25;2.20;;;1.00;;
66800;SDS011;53703;50.326;19.122;2023-01-13T05:12:18;2.70;;;1.20;;
66800;SDS011;53703;50.326;19.122;2023-01-13T05:15:30;2.00;;;1.00;;
66800;SDS011;53703;50.326;19.122;2023-01-13T05:18:41;1.80;;;1.10;;
66800;SDS011;53703;50.326;19.122;2023-01-13T05:21:35;1.80;;;1.00;;
66800;SDS011;53703;50.326;19.122;2023-01-13T05:24:47;1.90;;;1.10;;
66800;SDS011;53703;50.326;19.122;2023-01-13T05:27:59;2.70;;;1.10;;
66800;SDS011;53703;50.326;19.122;2023-01-13T05:30:53;1.90;;;1.10;;
66800;SDS011;53703;50.326;19.122;2023-01-13T05:33:47;1.70;;;1.00;;
66800;SDS011;53703;50.326;19.122;2023-01-13T05:36:41;1.80;;;1.10;;
66800;SDS011;53703;50.326;19.122;2023-01-13T05:39:35;2.60;;;1.20;;
66800;SDS011;53703;50.326;19.122;2023-01-13T05:42:44;2.50;;;1.20;;
66800;SDS011;53703;50.326;19.122;2023-01-13T05:45:57;2.90;;;1.20;;
66800;SDS011;53703;50.326;19.122;2023-01-13T05:48:54;6.60;;;1.30;;
66800;SDS011;53703;50.326;19.122;2023-01-13T05:51:49;2.40;;;1.50;;
66800;SDS011;53703;50.326;19.122;2023-01-13T05:54:43;2.20;;;1.20;;
66800;SDS011;53703;50.326;19.122;2023-01-13T05:57:37;2.30;;;1.20;;
66800;SDS011;53703;50.326;19.122;2023-01-13T06:00:30;4.40;;;1.20;;
66800;SDS011;53703;50.326;19.122;2023-01-13T06:03:24;2.70;;;1.20;;
66800;SDS011;53703;50.326;19.122;2023-01-13T06:06:18;4.50;;;1.40;;
66800;SDS011;53703;50.326;19.122;2023-01-13T06:09:12;2.90;;;1.30;;
66800;SDS011;53703;50.326;19.122;2023-01-13T06:12:07;2.90;;;1.10;;
66800;SDS011;53703;50.326;19.122;2023-01-13T06:15:04;2.80;;;1.10;;
66800;SDS011;53703;50.326;19.122;2023-01-13T06:18:00;10.40;;;1.60;;
66800;SDS011;53703;50.326;19.122;2023-01-13T06:20:55;2.40;;;1.80;;
66800;SDS011;53703;50.326;19.122;2023-01-13T06:23:49;4.80;;;1.40;;
66800;SDS011;53703;50.326;19.122;2023-01-13T06:26:43;2.40;;;1.20;;
66800;SDS011;53703;50.326;19.122;2023-01-13T06:29:37;3.20;;;1.30;;
66800;SDS011;53703;50.326;19.122;2023-01-13T06:32:33;2.80;;;1.20;;
66800;SDS011;53703;50.326;19.122;2023-01-13T06:35:31;2.10;;;1.20;;
66800;SDS011;53703;50.326;19.122;2023-01-13T06:38:28;2.20;;;1.10;;
66800;SDS011;53703;50.326;19.122;2023-01-13T06:41:26;4.30;;;1.40;;
66800;SDS011;53703;50.326;19.122;2023-01-13T06:44:45;3.70;;;1.40;;
66800;SDS011;53703;50.326;19.122;2023-01-13T06:47:40;2.70;;;1.20;;
66800;SDS011;53703;50.326;19.122;2023-01-13T06:50:33;5.10;;;1.50;;
66800;SDS011;53703;50.326;19.122;2023-01-13T06:53:27;2.80;;;1.50;;
66800;SDS011;53703;50.326;19.122;2023-01-13T06:56:21;3.20;;;1.40;;
66800;SDS011;53703;50.326;19.122;2023-01-13T06:59:05;3.00;;;1.30;;
66800;SDS011;53703;50.326;19.122;2023-01-13T07:01:59;2.60;;;1.00;;
66800;SDS011;53703;50.326;19.122;2023-01-13T07:04:54;2.30;;;1.20;;
66800;SDS011;53703;50.326;19.122;2023-01-13T07:07:47;2.70;;;1.50;;
66800;SDS011;53703;50.326;19.122;2023-01-13T07:10:41;3.30;;;1.40;;
66800;SDS011;53703;50.326;19.122;2023-01-13T07:13:36;2.40;;;1.30;;
66800;SDS011;53703;50.326;19.122;2023-01-13T07:16:47;3.20;;;1.70;;
66800;SDS011;53703;50.326;19.122;2023-01-13T07:19:42;3.90;;;2.30;;
66800;SDS011;53703;50.326;19.122;2023-01-13T07:22:36;4.90;;;2.40;;
66800;SDS011;53703;50.326;19.122;2023-01-13T07:25:30;3.50;;;1.50;;
66800;SDS011;53703;50.326;19.122;2023-01-13T07:28:25;2.40;;;1.40;;
66800;SDS011;53703;50.326;19.122;2023-01-13T07:31:21;2.60;;;1.70;;
66800;SDS011;53703;50.326;19.122;2023-01-13T07:34:16;3.60;;;1.90;;
66800;SDS011;53703;50.326;19.122;2023-01-13T07:37:10;3.80;;;1.80;;
66800;SDS011;53703;50.326;19.122;2023-01-13T07:40:04;5.20;;;2.00;;
66800;SDS011;53703;50.326;19.122;2023-01-13T07:43:00;5.00;;;2.80;;
66800;SDS011;53703;50.326;19.122;2023-01-13T07:46:11;5.30;;;2.70;;
66800;SDS011;53703;50.326;19.122;2023-01-13T07:49:06;4.80;;;3.10;;
66800;SDS011;53703;50.326;19.122;2023-01-13T07:52:00;5.00;;;2.50;;
66800;SDS011;53703;50.326;19.122;2023-01-13T07:54:54;5.50;;;2.70;;
66800;SDS011;53703;50.326;19.122;2023-01-13T07:57:49;6.00;;;2.90;;
66800;SDS011;53703;50.326;19.122;2023-01-13T08:00:43;4.50;;;2.50;;
66800;SDS011;53703;50.326;19.122;2023-01-13T08:03:37;6.30;;;2.60;;
66800;SDS011;53703;50.326;19.122;2023-01-13T08:06:31;3.80;;;2.10;;
66800;SDS011;53703;50.326;19.122;2023-01-13T08:09:26;3.90;;;2.10;;
66800;SDS011;53703;50.326;19.122;2023-01-13T08:12:20;4.90;;;2.70;;
66800;SDS011;53703;50.326;19.122;2023-01-13T08:15:43;4.20;;;2.50;;
66800;SDS011;53703;50.326;19.122;2023-01-13T08:18:38;3.90;;;2.30;;
66800;SDS011;53703;50.326;19.122;2023-01-13T08:21:32;5.40;;;2.70;;
66800;SDS011;53703;50.326;19.122;2023-01-13T08:24:26;4.00;;;2.50;;
66800;SDS011;53703;50.326;19.122;2023-01-13T08:27:20;4.50;;;2.40;;
66800;SDS011;53703;50.326;19.122;2023-01-13T08:30:14;5.70;;;2.20;;
66800;SDS011;53703;50.326;19.122;2023-01-13T08:33:10;4.60;;;2.60;;
66800;SDS011;53703;50.326;19.122;2023-01-13T08:35:55;3.70;;;2.40;;
66800;SDS011;53703;50.326;19.122;2023-01-13T08:38:49;5.10;;;3.30;;
66800;SDS011;53703;50.326;19.122;2023-01-13T08:41:43;4.20;;;2.50;;
66800;SDS011;53703;50.326;19.122;2023-01-13T08:44:43;4.40;;;2.60;;
66800;SDS011;53703;50.326;19.122;2023-01-13T08:47:37;4.50;;;2.40;;
66800;SDS011;53703;50.326;19.122;2023-01-13T08:50:31;4.40;;;2.00;;
66800;SDS011;53703;50.326;19.122;2023-01-13T08:53:22;4.10;;;2.70;;
66800;SDS011;53703;50.326;19.122;2023-01-13T08:56:16;5.40;;;2.40;;
66800;SDS011;53703;50.326;19.122;2023-01-13T08:59:11;5.00;;;2.60;;
66800;SDS011;53703;50.326;19.122;2023-01-13T09:01:48;8.60;;;3.60;;
66800;SDS011;53703;50.326;19.122;2023-01-13T09:04:26;8.30;;;3.60;;
66800;SDS011;53703;50.326;19.122;2023-01-13T09:07:22;8.10;;;3.50;;
66800;SDS011;53703;50.326;19.122;2023-01-13T09:10:16;14.00;;;4.70;;
66800;SDS011;53703;50.326;19.122;2023-01-13T09:13:12;8.20;;;4.00;;
66800;SDS011;53703;50.326;19.122;2023-01-13T09:16:08;11.60;;;3.30;;
66800;SDS011;53703;50.326;19.122;2023-01-13T09:19:02;8.00;;;4.00;;
66800;SDS011;53703;50.326;19.122;2023-01-13T09:21:56;12.80;;;4.00;;
66800;SDS011;53703;50.326;19.122;2023-01-13T09:24:50;7.80;;;4.40;;
66800;SDS011;53703;50.326;19.122;2023-01-13T09:27:44;7.70;;;3.50;;
66800;SDS011;53703;50.326;19.122;2023-01-13T09:30:38;11.30;;;3.70;;
66800;SDS011;53703;50.326;19.122;2023-01-13T09:33:32;7.20;;;3.10;;
66800;SDS011;53703;50.326;19.122;2023-01-13T09:36:46;9.30;;;3.40;;
66800;SDS011;53703;50.326;19.122;2023-01-13T09:39:38;7.40;;;3.30;;
66800;SDS011;53703;50.326;19.122;2023-01-13T09:42:40;7.50;;;3.50;;
66800;SDS011;53703;50.326;19.122;2023-01-13T09:45:58;9.40;;;3.70;;
66800;SDS011;53703;50.326;19.122;2023-01-13T09:48:57;6.90;;;3.50;;
66800;SDS011;53703;50.326;19.122;2023-01-13T09:52:02;6.40;;;3.40;;
66800;SDS011;53703;50.326;19.122;2023-01-13T09:55:04;5.80;;;3.40;;
66800;SDS011;53703;50.326;19.122;2023-01-13T09:58:06;5.50;;;2.90;;
66800;SDS011;53703;50.326;19.122;2023-01-13T10:01:15;6.50;;;3.30;;
66800;SDS011;53703;50.326;19.122;2023-01-13T10:04:15;7.30;;;3.00;;
66800;SDS011;53703;50.326;19.122;2023-01-13T10:07:12;6.50;;;3.00;;
66800;SDS011;53703;50.326;19.122;2023-01-13T10:10:12;5.90;;;3.10;;
66800;SDS011;53703;50.326;19.122;2023-01-13T10:13:18;6.90;;;3.40;;
66800;SDS011;53703;50.326;19.122;2023-01-13T10:16:25;11.00;;;2.90;;
66800;SDS011;53703;50.326;19.122;2023-01-13T10:19:27;5.10;;;2.80;;
66800;SDS011;53703;50.326;19.122;2023-01-13T10:22:36;4.40;;;2.80;;
66800;SDS011;53703;50.326;19.122;2023-01-13T10:25:45;6.20;;;2.70;;
66800;SDS011;53703;50.326;19.122;2023-01-13T10:31:46;6.20;;;2.80;;
66800;SDS011;53703;50.326;19.122;2023-01-13T10:34:47;5.40;;;2.90;;
66800;SDS011;53703;50.326;19.122;2023-01-13T10:37:57;4.90;;;2.60;;
66800;SDS011;53703;50.326;19.122;2023-01-13T10:43:59;5.20;;;2.60;;
66800;SDS011;53703;50.326;19.122;2023-01-13T10:48:09;5.00;;;2.70;;
66800;SDS011;53703;50.326;19.122;2023-01-13T10:51:18;5.10;;;2.50;;
66800;SDS011;53703;50.326;19.122;2023-01-13T10:54:53;7.20;;;2.90;;
66800;SDS011;53703;50.326;19.122;2023-01-13T10:57:44;5.80;;;2.60;;
66800;SDS011;53703;50.326;19.122;2023-01-13T11:00:34;5.60;;;2.60;;
66800;SDS011;53703;50.326;19.122;2023-01-13T11:03:24;4.30;;;2.30;;
66800;SDS011;53703;50.326;19.122;2023-01-13T11:06:20;10.40;;;2.50;;
66800;SDS011;53703;50.326;19.122;2023-01-13T11:09:09;4.50;;;2.40;;
66800;SDS011;53703;50.326;19.122;2023-01-13T11:15:20;4.30;;;2.10;;
66800;SDS011;53703;50.326;19.122;2023-01-13T11:18:22;7.50;;;2.30;;
66800;SDS011;53703;50.326;19.122;2023-01-13T11:21:19;5.30;;;2.20;;
66800;SDS011;53703;50.326;19.122;2023-01-13T11:24:05;5.40;;;2.30;;
66800;SDS011;53703;50.326;19.122;2023-01-13T11:26:54;3.40;;;2.10;;
66800;SDS011;53703;50.326;19.122;2023-01-13T11:29:58;6.60;;;2.50;;
66800;SDS011;53703;50.326;19.122;2023-01-13T11:33:06;4.20;;;2.20;;
66800;SDS011;53703;50.326;19.122;2023-01-13T11:36:12;5.80;;;2.50;;
66800;SDS011;53703;50.326;19.122;2023-01-13T11:39:13;5.10;;;2.40;;
66800;SDS011;53703;50.326;19.122;2023-01-13T11:42:14;9.50;;;2.40;;
66800;SDS011;53703;50.326;19.122;2023-01-13T11:45:29;5.90;;;2.00;;
66800;SDS011;53703;50.326;19.122;2023-01-13T11:48:26;6.20;;;1.80;;
66800;SDS011;53703;50.326;19.122;2023-01-13T11:51:24;7.10;;;2.40;;
66800;SDS011;53703;50.326;19.122;2023-01-13T11:54:29;6.10;;;2.20;;
66800;SDS011;53703;50.326;19.122;2023-01-13T11:58:03;7.30;;;2.90;;
66800;SDS011;53703;50.326;19.122;2023-01-13T12:01:09;4.30;;;2.90;;
66800;SDS011;53703;50.326;19.122;2023-01-13T12:04:20;3.90;;;2.00;;
66800;SDS011;53703;50.326;19.122;2023-01-13T12:07:18;5.20;;;2.30;;
66800;SDS011;53703;50.326;19.122;2023-01-13T12:10:18;5.70;;;2.70;;
66800;SDS011;53703;50.326;19.122;2023-01-13T12:13:42;5.00;;;2.40;;
66800;SDS011;53703;50.326;19.122;2023-01-13T12:16:44;4.80;;;2.80;;
66800;SDS011;53703;50.326;19.122;2023-01-13T12:19:36;4.80;;;2.60;;
66800;SDS011;53703;50.326;19.122;2023-01-13T12:22:28;4.20;;;2.30;;
66800;SDS011;53703;50.326;19.122;2023-01-13T12:25:26;6.60;;;2.40;;
66800;SDS011;53703;50.326;19.122;2023-01-13T12:28:23;4.90;;;2.30;;
66800;SDS011;53703;50.326;19.122;2023-01-13T12:31:18;24.00;;;5.80;;
66800;SDS011;53703;50.326;19.122;2023-01-13T12:34:30;28.90;;;7.10;;
66800;SDS011;53703;50.326;19.122;2023-01-13T12:37:33;60.00;;;10.90;;
66800;SDS011;53703;50.326;19.122;2023-01-13T12:40:42;75.60;;;15.10;;
66800;SDS011;53703;50.326;19.122;2023-01-13T12:43:46;35.90;;;8.40;;
66800;SDS011;53703;50.326;19.122;2023-01-13T12:46:56;33.40;;;7.00;;
66800;SDS011;53703;50.326;19.122;2023-01-13T12:49:31;36.70;;;8.10;;
66800;SDS011;53703;50.326;19.122;2023-01-13T12:52:22;23.40;;;7.20;;
66800;SDS011;53703;50.326;19.122;2023-01-13T12:55:17;36.80;;;7.70;;
66800;SDS011;53703;50.326;19.122;2023-01-13T12:58:15;27.70;;;6.70;;
66800;SDS011;53703;50.326;19.122;2023-01-13T13:01:11;46.20;;;11.40;;
66800;SDS011;53703;50.326;19.122;2023-01-13T13:04:08;34.20;;;8.50;;
66800;SDS011;53703;50.326;19.122;2023-01-13T13:07:06;26.90;;;6.40;;
66800;SDS011;53703;50.326;19.122;2023-01-13T13:10:00;31.40;;;7.30;;
66800;SDS011;53703;50.326;19.122;2023-01-13T13:12:56;29.20;;;8.40;;
66800;SDS011;53703;50.326;19.122;2023-01-13T13:16:36;33.90;;;8.90;;
66800;SDS011;53703;50.326;19.122;2023-01-13T13:19:42;23.80;;;7.00;;
66800;SDS011;53703;50.326;19.122;2023-01-13T13:22:42;30.10;;;8.30;;
66800;SDS011;53703;50.326;19.122;2023-01-13T13:25:48;29.40;;;7.40;;
66800;SDS011;53703;50.326;19.122;2023-01-13T13:28:54;25.60;;;7.40;;
66800;SDS011;53703;50.326;19.122;2023-01-13T13:32:07;25.00;;;6.50;;
66800;SDS011;53703;50.326;19.122;2023-01-13T13:35:30;19.80;;;6.80;;
66800;SDS011;53703;50.326;19.122;2023-01-13T13:38:39;17.70;;;6.30;;
66800;SDS011;53703;50.326;19.122;2023-01-13T13:42:03;24.70;;;7.20;;
66800;SDS011;53703;50.326;19.122;2023-01-13T13:45:21;21.70;;;7.60;;
66800;SDS011;53703;50.326;19.122;2023-01-13T13:48:31;22.30;;;7.70;;
66800;SDS011;53703;50.326;19.122;2023-01-13T13:51:24;18.00;;;7.60;;
66800;SDS011;53703;50.326;19.122;2023-01-13T13:54:17;22.20;;;6.40;;
66800;SDS011;53703;50.326;19.122;2023-01-13T13:57:16;23.20;;;8.10;;
66800;SDS011;53703;50.326;19.122;2023-01-13T13:59:52;20.80;;;6.60;;
66800;SDS011;53703;50.326;19.122;2023-01-13T14:02:48;18.00;;;5.40;;
66800;SDS011;53703;50.326;19.122;2023-01-13T14:05:54;24.50;;;6.40;;
66800;SDS011;53703;50.326;19.122;2023-01-13T14:08:45;20.30;;;6.10;;
66800;SDS011;53703;50.326;19.122;2023-01-13T14:11:40;19.70;;;7.30;;
66800;SDS011;53703;50.326;19.122;2023-01-13T14:14:30;20.10;;;7.50;;
66800;SDS011;53703;50.326;19.122;2023-01-13T14:17:22;17.20;;;7.60;;
66800;SDS011;53703;50.326;19.122;2023-01-13T14:20:16;18.90;;;7.30;;
66800;SDS011;53703;50.326;19.122;2023-01-13T14:23:06;27.00;;;8.30;;
66800;SDS011;53703;50.326;19.122;2023-01-13T14:26:07;34.00;;;12.10;;
66800;SDS011;53703;50.326;19.122;2023-01-13T14:29:01;45.20;;;14.60;;
66800;SDS011;53703;50.326;19.122;2023-01-13T14:31:52;36.80;;;14.50;;
66800;SDS011;53703;50.326;19.122;2023-01-13T14:34:42;31.00;;;10.70;;
66800;SDS011;53703;50.326;19.122;2023-01-13T14:37:34;34.50;;;11.30;;
66800;SDS011;53703;50.326;19.122;2023-01-13T14:40:42;21.30;;;8.70;;
66800;SDS011;53703;50.326;19.122;2023-01-13T14:43:33;29.50;;;10.10;;
66800;SDS011;53703;50.326;19.122;2023-01-13T14:46:44;22.90;;;8.40;;
66800;SDS011;53703;50.326;19.122;2023-01-13T14:49:36;26.30;;;8.40;;
66800;SDS011;53703;50.326;19.122;2023-01-13T14:52:31;22.40;;;8.20;;
66800;SDS011;53703;50.326;19.122;2023-01-13T14:55:27;27.40;;;9.00;;
66800;SDS011;53703;50.326;19.122;2023-01-13T14:58:25;24.00;;;9.40;;
66800;SDS011;53703;50.326;19.122;2023-01-13T15:01:28;24.10;;;8.60;;
66800;SDS011;53703;50.326;19.122;2023-01-13T15:04:37;20.50;;;8.60;;
66800;SDS011;53703;50.326;19.122;2023-01-13T15:07:20;24.80;;;9.60;;
66800;SDS011;53703;50.326;19.122;2023-01-13T15:10:14;20.70;;;8.20;;
66800;SDS011;53703;50.326;19.122;2023-01-13T15:13:06;21.60;;;8.70;;
66800;SDS011;53703;50.326;19.122;2023-01-13T15:16:18;22.20;;;8.80;;
66800;SDS011;53703;50.326;19.122;2023-01-13T15:19:09;21.50;;;8.20;;
66800;SDS011;53703;50.326;19.122;2023-01-13T15:22:00;18.20;;;8.00;;
66800;SDS011;53703;50.326;19.122;2023-01-13T15:24:50;17.60;;;8.00;;
66800;SDS011;53703;50.326;19.122;2023-01-13T15:27:31;21.30;;;8.90;;
66800;SDS011;53703;50.326;19.122;2023-01-13T15:30:23;17.70;;;7.60;;
66800;SDS011;53703;50.326;19.122;2023-01-13T15:32:57;17.50;;;7.70;;
66800;SDS011;53703;50.326;19.122;2023-01-13T15:35:50;24.30;;;8.00;;
66800;SDS011;53703;50.326;19.122;2023-01-13T15:38:41;17.20;;;7.90;;
66800;SDS011;53703;50.326;19.122;2023-01-13T15:41:31;17.30;;;7.40;;
66800;SDS011;53703;50.326;19.122;2023-01-13T15:44:29;17.00;;;7.80;;
66800;SDS011;53703;50.326;19.122;2023-01-13T15:47:19;17.80;;;7.30;;
66800;SDS011;53703;50.326;19.122;2023-01-13T15:50:15;16.40;;;7.40;;
66800;SDS011;53703;50.326;19.122;2023-01-13T15:53:05;14.40;;;7.20;;
66800;SDS011;53703;50.326;19.122;2023-01-13T15:55:55;16.70;;;7.30;;
66800;SDS011;53703;50.326;19.122;2023-01-13T15:58:47;16.00;;;7.20;;
66800;SDS011;53703;50.326;19.122;2023-01-13T16:01:36;17.40;;;7.30;;
66800;SDS011;53703;50.326;19.122;2023-01-13T16:04:26;17.20;;;7.70;;
66800;SDS011;53703;50.326;19.122;2023-01-13T16:07:16;14.70;;;6.60;;
66800;SDS011;53703;50.326;19.122;2023-01-13T16:10:15;13.20;;;5.90;;
66800;SDS011;53703;50.326;19.122;2023-01-13T16:13:06;14.90;;;6.80;;
66800;SDS011;53703;50.326;19.122;2023-01-13T16:15:56;11.50;;;5.80;;
66800;SDS011;53703;50.326;19.122;2023-01-13T16:18:48;11.80;;;6.40;;
66800;SDS011;53703;50.326;19.122;2023-01-13T16:21:38;13.10;;;6.50;;
66800;SDS011;53703;50.326;19.122;2023-01-13T16:24:07;15.70;;;6.40;;
66800;SDS011;53703;50.326;19.122;2023-01-13T16:26:57;13.70;;;7.20;;
66800;SDS011;53703;50.326;19.122;2023-01-13T16:29:48;13.40;;;6.40;;
66800;SDS011;53703;50.326;19.122;2023-01-13T16:32:19;13.40;;;6.80;;
66800;SDS011;53703;50.326;19.122;2023-01-13T16:35:09;13.70;;;6.30;;
66800;SDS011;53703;50.326;19.122;2023-01-13T16:37:59;15.20;;;7.70;;
66800;SDS011;53703;50.326;19.122;2023-01-13T16:40:48;13.60;;;6.20;;
66800;SDS011;53703;50.326;19.122;2023-01-13T16:46:20;15.40;;;6.50;;
66800;SDS011;53703;50.326;19.122;2023-01-13T16:49:16;13.40;;;6.70;;
66800;SDS011;53703;50.326;19.122;2023-01-13T16:52:10;14.80;;;6.10;;
66800;SDS011;53703;50.326;19.122;2023-01-13T16:55:05;12.60;;;6.20;;
66800;SDS011;53703;50.326;19.122;2023-01-13T16:57:58;12.70;;;6.40;;
66800;SDS011;53703;50.326;19.122;2023-01-13T17:00:50;12.60;;;6.00;;
66800;SDS011;53703;50.326;19.122;2023-01-13T17:03:45;14.80;;;6.70;;
66800;SDS011;53703;50.326;19.122;2023-01-13T17:06:43;14.20;;;5.80;;
66800;SDS011;53703;50.326;19.122;2023-01-13T17:09:43;13.20;;;5.80;;
66800;SDS011;53703;50.326;19.122;2023-01-13T17:12:39;10.70;;;5.70;;
66800;SDS011;53703;50.326;19.122;2023-01-13T17:15:33;11.90;;;5.70;;
66800;SDS011;53703;50.326;19.122;2023-01-13T17:18:28;11.10;;;5.20;;
66800;SDS011;53703;50.326;19.122;2023-01-13T17:21:22;13.20;;;6.00;;
66800;SDS011;53703;50.326;19.122;2023-01-13T17:24:16;11.10;;;5.80;;
66800;SDS011;53703;50.326;19.122;2023-01-13T17:27:11;10.30;;;5.30;;
66800;SDS011;53703;50.326;19.122;2023-01-13T17:30:10;11.10;;;5.70;;
66800;SDS011;53703;50.326;19.122;2023-01-13T17:33:05;10.20;;;5.00;;